Time;durP1;ratioP1;P1;durP2;ratioP2;P2;SDS_P1;SDS_P2;PMS_P1;PMS_P2;Temp;Humidity;BMP_temperature;BMP_pressure;BME280_temperature;BME280_humidity;BME280_pressure;Samples;Min_cycle;Max_cycle;Signal;HPM_P1;HPM_P2
2022/11/04 00:01:53;;;;;;;1.00;0.45;;;;;;;11.52;88.75;100183.09;5035473;27;97936;-32
2022/11/04 00:04:21;;;;;;;1.33;0.25;;;;;;;11.52;88.97;100176.81;5035672;27;99381;-33
2022/11/04 00:06:47;;;;;;;1.58;0.28;;;;;;;11.49;88.73;100183.34;5034634;28;97407;-32
2022/11/04 00:09:19;;;;;;;2.95;0.40;;;;;;;11.45;88.88;100182.69;5036314;27;96809;-31
2022/11/04 00:14:29;;;;;;;1.08;0.30;;;;;;;11.40;88.97;100187.63;5036019;28;96573;-31
2022/11/04 00:30:44;;;;;;;1.02;0.30;;;;;;;11.24;88.97;100222.28;5036091;28;96629;-31
2022/11/04 00:33:24;;;;;;;0.55;0.38;;;;;;;11.13;88.23;100224.91;5033883;27;99706;-32
2022/11/04 00:35:51;;;;;;;0.40;0.13;;;;;;;11.06;88.41;100224.53;5033901;28;101241;-33
2022/11/04 00:38:17;;;;;;;0.57;0.28;;;;;;;10.99;88.58;100224.09;5034161;28;96746;-33
2022/11/04 00:40:43;;;;;;;0.10;0.10;;;;;;;10.89;88.26;100224.88;5035538;27;96722;-32
2022/11/04 00:43:08;;;;;;;0.25;0.10;;;;;;;10.79;88.35;100222.81;5033775;28;101488;-31
2022/11/04 00:45:34;;;;;;;0.52;0.10;;;;;;;10.69;87.86;100226.34;5034936;27;112757;-31
2022/11/04 00:47:59;;;;;;;0.10;0.05;;;;;;;10.69;88.05;100223.63;5035323;28;98171;-31
2022/11/04 00:50:24;;;;;;;1.42;0.22;;;;;;;10.68;87.96;100222.75;5034495;27;96888;-32
2022/11/04 00:52:50;;;;;;;0.25;0.10;;;;;;;10.71;88.07;100219.81;5033878;28;120082;-33
2022/11/04 00:55:15;;;;;;;0.35;0.17;;;;;;;10.73;87.94;100208.88;5034466;27;117242;-31
2022/11/04 00:57:40;;;;;;;0.32;0.10;;;;;;;10.75;87.60;100212.31;5034863;28;96757;-31
2022/11/04 01:00:06;;;;;;;0.28;0.10;;;;;;;10.76;87.67;100220.34;5034555;27;109500;-32
2022/11/04 01:02:32;;;;;;;0.20;0.20;;;;;;;10.76;87.50;100227.63;5033527;28;102410;-31
2022/11/04 01:04:57;;;;;;;0.32;0.20;;;;;;;10.76;87.41;100228.47;5035199;27;97079;-31
2022/11/04 01:07:22;;;;;;;0.85;0.20;;;;;;;10.78;87.34;100225.66;5034462;28;109096;-32
2022/11/04 01:09:48;;;;;;;0.00;0.00;;;;;;;10.77;87.19;100235.66;5035583;27;96772;-32
2022/11/04 01:12:13;;;;;;;0.28;0.22;;;;;;;10.74;86.96;100243.13;5034938;27;97956;-33
2022/11/04 01:14:39;;;;;;;0.00;0.00;;;;;;;10.77;86.99;100256.44;5034805;27;97398;-31
2022/11/04 01:17:04;;;;;;;1.65;0.10;;;;;;;10.71;87.00;100260.44;5033804;27;96883;-33
2022/11/04 01:19:30;;;;;;;0.52;0.10;;;;;;;10.69;87.01;100262.41;5035287;27;96804;-31
2022/11/04 01:21:55;;;;;;;0.08;0.00;;;;;;;10.67;87.12;100266.19;5034451;28;99293;-33
2022/11/04 01:24:20;;;;;;;0.70;0.20;;;;;;;10.68;87.00;100267.91;5035160;27;97218;-31
2022/11/04 01:26:46;;;;;;;1.00;0.30;;;;;;;10.61;87.30;100281.06;5034283;27;107059;-32
2022/11/04 01:29:11;;;;;;;0.00;0.00;;;;;;;10.56;87.58;100281.38;5034857;27;96953;-32
2022/11/04 01:31:36;;;;;;;0.47;0.10;;;;;;;10.58;87.56;100297.50;5034694;27;98411;-32
2022/11/04 01:34:02;;;;;;;0.20;0.10;;;;;;;10.53;87.35;100296.97;5034981;28;97943;-31
2022/11/04 01:36:27;;;;;;;0.10;0.10;;;;;;;10.48;87.57;100297.28;5034339;28;101290;-31
2022/11/04 01:38:56;;;;;;;0.17;0.00;;;;;;;10.48;87.97;100309.97;5034848;27;96706;-32
2022/11/04 01:41:23;;;;;;;1.23;0.20;;;;;;;10.52;88.04;100304.22;5032587;28;98993;-32
2022/11/04 01:43:57;;;;;;;0.20;0.10;;;;;;;10.51;87.94;100310.63;5032852;28;101518;-31
2022/11/04 01:46:31;;;;;;;0.00;0.00;;;;;;;10.50;87.97;100303.47;5034952;27;96524;-31
2022/11/04 01:49:23;;;;;;;0.13;0.13;;;;;;;10.53;88.09;100295.13;5033243;28;96813;-32
2022/11/04 01:51:53;;;;;;;0.20;0.10;;;;;;;10.51;88.02;100288.06;5031096;28;98328;-33
2022/11/04 01:54:19;;;;;;;0.17;0.17;;;;;;;10.44;87.49;100293.06;5033005;28;100852;-31
2022/11/04 01:56:47;;;;;;;1.00;0.70;;;;;;;10.37;87.71;100297.19;5033088;27;96870;-33
2022/11/04 01:59:20;;;;;;;1.08;0.75;;;;;;;10.37;87.96;100305.31;5034963;27;96773;-32
2022/11/04 02:01:46;;;;;;;2.13;0.55;;;;;;;10.37;88.14;100310.72;5034289;27;100805;-32
2022/11/04 02:04:25;;;;;;;1.70;0.98;;;;;;;10.37;87.89;100314.28;5036302;28;101301;-31
2022/11/04 02:06:55;;;;;;;1.13;0.75;;;;;;;10.33;87.78;100311.91;5036237;28;96602;-33
2022/11/04 02:09:23;;;;;;;1.27;0.82;;;;;;;10.33;88.03;100317.31;5036594;28;96878;-31
2022/11/04 02:14:34;;;;;;;1.08;0.65;;;;;;;10.31;88.11;100320.13;5037930;28;97010;-31
2022/11/04 02:17:21;;;;;;;2.33;1.38;;;;;;;10.30;87.91;100318.41;5035811;28;96902;-32
2022/11/04 02:19:57;;;;;;;3.38;1.10;;;;;;;10.30;87.94;100325.66;5037869;27;96845;-31
2022/11/04 02:22:49;;;;;;;1.95;1.20;;;;;;;10.25;88.12;100320.53;5037594;28;97246;-32
2022/11/04 02:25:30;;;;;;;;;;;;;;;10.26;88.01;100319.53;5038643;27;97349;-31
2022/11/04 02:28:03;;;;;;;1.75;0.90;;;;;;;10.22;87.94;100326.13;5037606;28;96506;-32
2022/11/04 02:30:38;;;;;;;3.28;1.85;;;;;;;10.18;88.15;100330.03;5037561;28;96668;-32
2022/11/04 02:33:03;;;;;;;2.53;1.48;;;;;;;10.15;88.16;100335.63;5036896;27;98464;-32
2022/11/04 02:35:48;;;;;;;3.50;1.65;;;;;;;10.13;88.31;100324.94;5037326;28;97822;-32
2022/11/04 02:38:54;;;;;;;2.20;1.58;;;;;;;10.09;88.90;100325.25;5037698;27;96622;-32
2022/11/04 02:41:40;;;;;;;2.72;1.58;;;;;;;10.06;88.85;100314.59;5037412;28;96815;-32
2022/11/04 02:44:22;;;;;;;3.22;1.83;;;;;;;10.04;89.17;100316.59;5035579;27;101837;-33
2022/11/04 02:46:59;;;;;;;4.15;1.75;;;;;;;10.02;89.24;100321.22;5035800;28;99369;-33
2022/11/04 02:49:34;;;;;;;3.90;2.17;;;;;;;10.05;89.42;100323.72;5037650;28;96474;-31
2022/11/04 02:52:20;;;;;;;3.70;1.67;;;;;;;10.09;89.30;100333.38;5036133;28;96713;-32
2022/11/04 02:55:03;;;;;;;3.22;1.90;;;;;;;10.05;89.16;100340.81;5035623;28;101469;-32
2022/11/04 02:57:34;;;;;;;3.40;1.55;;;;;;;9.98;89.36;100334.06;5036971;27;97823;-31
2022/11/04 03:00:03;;;;;;;3.75;1.63;;;;;;;9.97;89.46;100344.03;5035448;28;96630;-33
2022/11/04 03:02:36;;;;;;;6.40;2.25;;;;;;;9.99;89.59;100338.53;5035621;28;96854;-31
2022/11/04 03:05:04;;;;;;;3.13;1.63;;;;;;;9.99;89.55;100335.84;5036426;28;98087;-31
2022/11/04 03:07:36;;;;;;;3.03;1.50;;;;;;;10.03;89.93;100339.19;5035418;28;101186;-32
2022/11/04 03:10:08;;;;;;;5.40;1.58;;;;;;;10.03;89.54;100337.34;5035862;28;97421;-32
2022/11/04 03:12:41;;;;;;;4.47;2.17;;;;;;;10.04;89.26;100338.22;5034975;28;96893;-31
2022/11/04 03:15:14;;;;;;;2.97;1.88;;;;;;;9.99;89.83;100331.28;5035088;28;101344;-32
2022/11/04 03:17:39;;;;;;;5.18;1.98;;;;;;;10.03;89.87;100339.19;5035270;28;100912;-31
2022/11/04 03:20:12;;;;;;;4.72;2.28;;;;;;;9.98;89.31;100336.78;5035415;28;96667;-31
2022/11/04 03:22:37;;;;;;;8.57;2.00;;;;;;;9.94;89.82;100337.97;5035665;28;96830;-33
2022/11/04 03:25:05;;;;;;;2.35;1.52;;;;;;;9.99;90.07;100342.09;5036074;27;97859;-31
2022/11/04 03:27:44;;;;;;;6.03;1.98;;;;;;;9.95;90.22;100350.53;5035066;28;102219;-33
2022/11/04 03:30:16;;;;;;;4.10;1.98;;;;;;;9.95;90.06;100347.81;5035257;28;96498;-31
2022/11/04 03:33:05;;;;;;;3.40;1.92;;;;;;;9.93;89.85;100353.31;5035094;28;96990;-31
2022/11/04 03:35:31;;;;;;;3.05;1.63;;;;;;;9.91;90.31;100360.66;5006583;27;99380;-31
2022/11/04 03:37:57;;;;;;;3.53;1.80;;;;;;;9.94;90.14;100362.34;5036328;27;98261;-32
2022/11/04 03:40:23;;;;;;;4.28;1.90;;;;;;;9.95;90.12;100372.16;5035028;28;96663;-32
2022/11/04 03:42:59;;;;;;;5.55;2.53;;;;;;;9.96;89.72;100363.97;5035467;28;96788;-31
2022/11/04 03:45:25;;;;;;;5.45;2.30;;;;;;;9.96;90.10;100366.66;5034753;28;100875;-31
2022/11/04 03:47:51;;;;;;;4.18;2.60;;;;;;;9.94;90.08;100365.03;5034685;28;100932;-31
2022/11/04 03:50:27;;;;;;;5.95;2.75;;;;;;;9.95;89.98;100377.59;5036020;27;96472;-32
2022/11/04 03:52:53;;;;;;;4.28;2.28;;;;;;;9.88;89.85;100374.41;5034720;28;96706;-32
2022/11/04 03:55:19;;;;;;;5.05;1.92;;;;;;;9.81;90.06;100373.09;5035789;27;99204;-31
2022/11/04 03:57:54;;;;;;;4.22;1.95;;;;;;;9.82;90.46;100376.66;5034381;27;101359;-31
2022/11/04 04:00:21;;;;;;;3.90;1.95;;;;;;;9.81;90.40;100374.94;5034891;28;96709;-31
2022/11/04 04:02:59;;;;;;;4.00;2.08;;;;;;;9.82;90.14;100371.25;5034868;28;96925;-31
2022/11/04 04:05:29;;;;;;;3.70;1.65;;;;;;;9.78;90.19;100367.88;5035664;28;97929;-32
2022/11/04 04:08:09;;;;;;;3.38;1.50;;;;;;;9.81;90.09;100385.75;5036169;27;97364;-32
2022/11/04 04:10:52;;;;;;;4.60;2.08;;;;;;;9.76;89.77;100380.63;5036359;27;96738;-31
2022/11/04 04:13:26;;;;;;;2.78;1.60;;;;;;;9.74;89.87;100382.56;5034690;28;96853;-31
2022/11/04 04:15:58;;;;;;;2.42;1.35;;;;;;;9.75;89.82;100381.63;5033306;28;101350;-31
2022/11/04 04:18:35;;;;;;;5.35;1.70;;;;;;;9.73;89.93;100388.97;5033769;28;101078;-31
2022/11/04 04:21:03;;;;;;;4.55;1.45;;;;;;;9.70;90.11;100394.53;5034619;28;96709;-31
2022/11/04 04:29:05;;;;;;;2.65;1.00;;;;;;;9.71;90.00;100405.28;5036088;28;97034;-31
2022/11/04 04:31:49;;;;;;;2.38;1.38;;;;;;;9.72;89.75;100401.59;5034179;28;96534;-33
2022/11/04 04:34:16;;;;;;;3.63;1.27;;;;;;;9.68;89.52;100408.19;5034833;28;96748;-31
2022/11/04 04:36:51;;;;;;;3.20;1.48;;;;;;;9.69;89.78;100414.47;5033926;28;101227;-31
2022/11/04 04:45:04;;;;;;;2.63;1.08;;;;;;;9.62;89.60;100416.69;5035763;28;96581;-32
2022/11/04 04:47:34;;;;;;;5.05;1.50;;;;;;;9.62;89.68;100423.94;5035512;28;98044;-31
2022/11/04 04:50:01;;;;;;;1.40;1.08;;;;;;;9.62;89.72;100430.22;5033822;28;101185;-32
2022/11/04 04:52:32;;;;;;;3.60;1.23;;;;;;;9.59;89.57;100425.00;5035579;27;96544;-32
2022/11/04 04:54:57;;;;;;;2.80;1.45;;;;;;;9.60;89.34;100425.88;5034047;28;96915;-33
2022/11/04 04:57:23;;;;;;;1.85;1.13;;;;;;;9.61;89.35;100425.78;5034486;27;97866;-32
2022/11/04 04:59:48;;;;;;;1.77;1.00;;;;;;;9.60;89.51;100431.28;5035629;27;97253;-31
2022/11/04 05:02:13;;;;;;;3.08;0.98;;;;;;;9.57;89.22;100426.94;5034762;28;107033;-31
2022/11/04 05:04:39;;;;;;;2.47;1.00;;;;;;;9.52;89.37;100426.38;5035149;28;96799;-31
2022/11/04 05:07:06;;;;;;;2.35;0.80;;;;;;;9.52;89.45;100437.19;5034291;28;99971;-31
2022/11/04 05:09:31;;;;;;;1.75;1.00;;;;;;;9.54;89.52;100438.81;5034763;27;99153;-31
2022/11/04 05:11:57;;;;;;;2.28;1.20;;;;;;;9.53;89.47;100438.91;5035027;27;96663;-31
2022/11/04 05:14:22;;;;;;;2.33;0.85;;;;;;;9.53;89.22;100447.00;5034763;28;110255;-31
2022/11/04 05:16:47;;;;;;;2.28;1.27;;;;;;;9.54;89.31;100451.47;5034257;27;97214;-31
2022/11/04 05:19:13;;;;;;;2.28;1.50;;;;;;;9.52;89.48;100458.81;5034019;28;112428;-31
2022/11/04 05:21:38;;;;;;;1.85;1.20;;;;;;;9.50;89.37;100458.91;5035069;27;96535;-32
2022/11/04 05:24:03;;;;;;;1.27;0.90;;;;;;;9.52;89.20;100461.50;5035161;27;99413;-31
2022/11/04 05:26:29;;;;;;;2.63;1.23;;;;;;;9.55;89.41;100466.72;5034537;27;97729;-32
2022/11/04 05:28:54;;;;;;;2.80;1.23;;;;;;;9.55;89.50;100472.97;5034220;27;107326;-32
2022/11/04 05:31:19;;;;;;;2.08;1.27;;;;;;;9.57;89.59;100473.75;5034061;28;99331;-32
2022/11/04 05:33:45;;;;;;;1.63;0.98;;;;;;;9.57;89.44;100471.06;5035015;27;96767;-32
2022/11/04 05:36:13;;;;;;;2.05;1.15;;;;;;;9.59;89.62;100470.09;5034018;27;97840;-31
2022/11/04 05:38:38;;;;;;;0.95;0.73;;;;;;;9.57;89.65;100475.59;5034424;27;97781;-31
2022/11/04 05:41:05;;;;;;;1.98;0.95;;;;;;;9.59;89.61;100478.22;5033417;28;96833;-32
2022/11/04 05:43:31;;;;;;;1.02;0.85;;;;;;;9.57;89.72;100475.59;5033172;28;96941;-31
2022/11/04 05:45:58;;;;;;;3.33;0.88;;;;;;;9.58;89.84;100490.84;5032974;28;101071;-32
2022/11/04 05:48:23;;;;;;;3.33;0.88;;;;;;;9.59;89.88;100494.44;5033343;28;100906;-31
2022/11/04 05:50:49;;;;;;;2.20;1.10;;;;;;;9.59;89.73;100495.31;5034457;27;96644;-31
2022/11/04 05:53:14;;;;;;;3.20;1.00;;;;;;;9.62;89.76;100500.50;5034730;27;96725;-32
2022/11/04 05:55:39;;;;;;;1.75;0.93;;;;;;;9.62;89.76;100510.47;5033117;27;113810;-32
2022/11/04 05:58:04;;;;;;;5.15;1.45;;;;;;;9.62;89.55;100507.75;5033533;27;111317;-31
2022/11/04 06:00:30;;;;;;;1.70;0.80;;;;;;;9.61;89.57;100498.78;5034311;28;100150;-31
2022/11/04 06:02:58;;;;;;;3.70;1.02;;;;;;;9.66;89.58;100512.88;5034778;27;96715;-31
2022/11/04 06:05:25;;;;;;;3.10;1.33;;;;;;;9.64;89.78;100508.53;5032760;28;101070;-31
2022/11/04 06:07:50;;;;;;;1.73;0.95;;;;;;;9.63;90.24;100515.78;5034206;27;97899;-31
2022/11/04 06:10:16;;;;;;;1.85;0.77;;;;;;;9.66;89.99;100521.00;5034203;27;96835;-31
2022/11/04 06:12:41;;;;;;;1.75;0.82;;;;;;;9.67;90.16;100521.84;5034496;27;96774;-31
2022/11/04 06:15:07;;;;;;;2.63;1.25;;;;;;;9.68;89.93;100520.91;5033895;28;103262;-32
2022/11/04 06:17:32;;;;;;;2.90;1.17;;;;;;;9.69;89.96;100519.94;5033238;27;99317;-31
2022/11/04 06:19:58;;;;;;;1.42;0.80;;;;;;;9.73;89.94;100518.78;5033707;28;96618;-32
2022/11/04 06:22:23;;;;;;;1.67;1.10;;;;;;;9.71;90.17;100532.38;5033816;28;103944;-31
2022/11/04 06:24:48;;;;;;;0.90;0.68;;;;;;;9.72;90.33;100528.69;5033613;28;108990;-31
2022/11/04 06:27:14;;;;;;;1.23;0.90;;;;;;;9.72;90.14;100528.69;5033592;27;99825;-32
2022/11/04 06:29:40;;;;;;;2.63;1.30;;;;;;;9.73;90.14;100532.31;5034303;27;96455;-31
2022/11/04 06:32:11;;;;;;;1.33;0.80;;;;;;;9.75;90.17;100538.50;5032644;28;96948;-31
2022/11/04 06:34:37;;;;;;;2.65;1.10;;;;;;;9.74;89.72;100536.72;5034072;27;97429;-31
2022/11/04 06:37:03;;;;;;;1.77;1.13;;;;;;;9.73;89.93;100538.56;5032640;28;100821;-31
2022/11/04 06:39:28;;;;;;;6.10;0.88;;;;;;;9.74;90.33;100540.31;5032497;28;96642;-31
2022/11/04 06:41:53;;;;;;;3.20;1.05;;;;;;;9.72;90.24;100539.53;5034136;27;96571;-31
2022/11/04 06:44:19;;;;;;;6.25;1.23;;;;;;;9.75;90.17;100547.47;5033045;27;99238;-31
2022/11/04 06:46:44;;;;;;;4.05;1.17;;;;;;;9.75;90.32;100539.34;5034075;27;97432;-32
2022/11/04 06:49:16;;;;;;;2.97;1.05;;;;;;;9.73;90.44;100541.28;5035963;27;96442;-31
2022/11/04 06:51:43;;;;;;;2.63;1.10;;;;;;;9.71;90.26;100545.91;5037120;27;96927;-31
2022/11/04 06:54:10;;;;;;;3.05;1.02;;;;;;;9.65;90.30;100546.28;5035552;28;101272;-31
2022/11/04 06:56:36;;;;;;;2.50;1.08;;;;;;;9.66;90.48;100542.63;5036817;27;99024;-33
2022/11/04 06:59:04;;;;;;;2.33;1.00;;;;;;;9.66;90.45;100544.47;5036722;27;96549;-32
2022/11/04 07:01:33;;;;;;;2.03;0.90;;;;;;;9.66;90.34;100549.88;5036167;28;96816;-32
2022/11/04 07:03:59;;;;;;;3.72;1.35;;;;;;;9.64;90.29;100557.22;5036389;27;99895;-32
2022/11/04 07:06:26;;;;;;;2.00;1.13;;;;;;;9.64;90.47;100554.50;5035278;28;100895;-31
2022/11/04 07:08:52;;;;;;;2.90;1.00;;;;;;;9.67;90.39;100555.19;5034572;28;96639;-31
2022/11/04 07:11:20;;;;;;;3.78;1.23;;;;;;;9.65;90.39;100559.81;5035625;28;96877;-32
2022/11/04 07:13:45;;;;;;;1.70;1.00;;;;;;;9.61;90.64;100562.81;5036513;27;99983;-32
2022/11/04 07:16:10;;;;;;;2.70;1.05;;;;;;;9.60;90.85;100563.78;5036589;28;97890;-31
2022/11/04 07:18:36;;;;;;;4.70;1.27;;;;;;;9.60;90.54;100564.63;5036365;27;96742;-31
2022/11/04 07:21:01;;;;;;;2.63;0.77;;;;;;;9.59;90.30;100571.03;5036788;27;96791;-32
2022/11/04 07:23:27;;;;;;;1.75;0.80;;;;;;;9.56;90.70;100557.69;5036647;27;97436;-32
2022/11/04 07:25:56;;;;;;;2.35;0.95;;;;;;;9.59;90.90;100564.75;5037052;28;96446;-31
2022/11/04 07:28:22;;;;;;;1.58;1.00;;;;;;;9.55;90.17;100567.63;5035028;28;96724;-31
2022/11/04 07:30:48;;;;;;;3.25;0.80;;;;;;;9.54;90.82;100575.84;5035083;28;96876;-32
2022/11/04 07:33:14;;;;;;;2.40;0.98;;;;;;;9.53;91.14;100569.56;5034912;28;101550;-32
2022/11/04 07:35:39;;;;;;;3.65;0.80;;;;;;;9.56;91.02;100571.22;5036511;27;97899;-31
2022/11/04 07:38:05;;;;;;;1.73;0.88;;;;;;;9.61;90.65;100571.81;5036114;28;100150;-33
2022/11/04 07:40:33;;;;;;;3.72;1.05;;;;;;;9.61;91.00;100579.91;5036639;27;96748;-32
2022/11/04 07:42:59;;;;;;;3.05;1.20;;;;;;;9.60;90.72;100588.97;5051744;27;101372;-32
2022/11/04 07:45:25;;;;;;;6.70;0.85;;;;;;;9.66;90.71;100593.16;5034385;28;100598;-31
2022/11/04 07:47:50;;;;;;;2.47;1.38;;;;;;;9.66;90.62;100594.00;5035757;27;96656;-31
2022/11/04 07:50:16;;;;;;;2.10;1.10;;;;;;;9.73;90.55;100602.63;5036281;27;96776;-31
2022/11/04 07:52:41;;;;;;;2.75;1.02;;;;;;;9.74;90.42;100607.91;5035684;27;97999;-31
2022/11/04 07:55:07;;;;;;;3.45;1.10;;;;;;;9.81;90.23;100616.53;5035697;28;97314;-31
2022/11/04 07:57:32;;;;;;;4.25;1.02;;;;;;;9.82;90.60;100614.69;5035274;28;96596;-31
2022/11/04 07:59:58;;;;;;;1.55;0.90;;;;;;;9.85;90.63;100619.94;5035637;27;96737;-31
2022/11/04 08:02:23;;;;;;;1.35;0.98;;;;;;;9.88;90.64;100625.13;5035844;27;99389;-31
2022/11/04 08:04:49;;;;;;;8.90;1.40;;;;;;;9.85;90.22;100628.03;5035760;27;97389;-31
2022/11/04 08:07:15;;;;;;;2.13;1.27;;;;;;;9.86;90.16;100625.22;5051800;27;96546;-32
2022/11/04 08:09:40;;;;;;;3.03;1.00;;;;;;;9.91;90.06;100627.63;5036259;27;96787;-32
2022/11/04 08:12:05;;;;;;;1.38;0.70;;;;;;;9.92;89.88;100632.09;5035622;27;99626;-31
2022/11/04 08:14:31;;;;;;;1.52;1.00;;;;;;;9.93;89.95;100629.28;5035893;27;99527;-31
2022/11/04 08:16:56;;;;;;;2.25;1.25;;;;;;;9.95;89.93;100637.31;5035611;28;96820;-31
2022/11/04 08:19:22;;;;;;;2.33;0.88;;;;;;;9.94;89.76;100641.00;5036167;27;96620;-31
2022/11/04 08:21:47;;;;;;;4.22;1.30;;;;;;;9.91;90.04;100646.59;5035126;27;97402;-31
2022/11/04 08:24:12;;;;;;;3.53;1.10;;;;;;;9.92;90.12;100654.63;5035744;27;97785;-32
2022/11/04 08:26:38;;;;;;;1.52;0.90;;;;;;;9.93;90.01;100650.06;5035870;28;97229;-31
2022/11/04 08:29:07;;;;;;;2.97;1.23;;;;;;;9.97;89.92;100652.50;5050979;27;100937;-32
2022/11/04 08:31:34;;;;;;;1.40;0.73;;;;;;;10.00;89.84;100659.53;5035542;27;97456;-31
2022/11/04 08:34:00;;;;;;;7.95;0.90;;;;;;;10.01;89.60;100666.72;5033618;28;100726;-31
2022/11/04 08:36:32;;;;;;;2.90;1.20;;;;;;;10.02;89.45;100654.91;5051246;27;96676;-31
2022/11/04 08:38:57;;;;;;;;;;;;;;;10.05;89.80;100665.53;5036655;27;96644;-33
2022/11/04 08:41:27;;;;;;;6.57;1.73;;;;;;;10.02;89.52;100668.44;5033976;28;101543;-31
2022/11/04 08:43:54;;;;;;;2.75;1.70;;;;;;;10.00;89.92;100670.38;5035320;27;99383;-32
2022/11/04 08:46:20;;;;;;;3.63;1.45;;;;;;;10.03;89.84;100677.41;5035116;27;96573;-30
2022/11/04 08:48:45;;;;;;;2.55;1.27;;;;;;;10.05;89.69;100675.50;5035235;27;96909;-31
2022/11/04 08:51:32;;;;;;;3.40;1.42;;;;;;;10.10;89.48;100674.22;5035115;27;97487;-31
2022/11/04 08:53:58;;;;;;;7.15;1.70;;;;;;;10.16;89.29;100678.41;5035004;27;97278;-32
2022/11/04 08:56:23;;;;;;;7.00;1.92;;;;;;;10.24;89.10;100688.75;5035260;28;96597;-30
2022/11/04 08:58:48;;;;;;;3.58;1.52;;;;;;;10.31;89.09;100687.44;5035046;27;96837;-32
2022/11/04 09:01:15;;;;;;;4.57;1.27;;;;;;;10.35;88.77;100684.44;5035113;27;96756;-31
2022/11/04 09:03:41;;;;;;;3.10;1.67;;;;;;;10.37;88.65;100690.63;5050885;27;103267;-32
2022/11/04 09:06:09;;;;;;;5.38;1.52;;;;;;;10.37;88.78;100692.47;5033805;28;96668;-31
2022/11/04 09:08:37;;;;;;;2.35;1.40;;;;;;;10.40;88.70;100694.97;5033860;28;96844;-32
2022/11/04 09:11:06;;;;;;;5.82;1.63;;;;;;;10.44;89.01;100704.66;5049116;27;101363;-32
2022/11/04 09:13:31;;;;;;;5.13;1.38;;;;;;;10.50;88.68;100708.78;5034630;27;99436;-33
2022/11/04 09:15:56;;;;;;;3.75;1.60;;;;;;;10.56;88.59;100705.72;5034918;27;96712;-31
2022/11/04 09:18:21;;;;;;;3.25;1.48;;;;;;;10.62;88.07;100708.88;5034589;28;96813;-31
2022/11/04 09:20:47;;;;;;;1.73;1.25;;;;;;;10.68;88.34;100713.03;5035084;27;97396;-32
2022/11/04 09:23:12;;;;;;;4.63;1.77;;;;;;;10.71;88.27;100711.97;5034331;27;108402;-31
2022/11/04 09:25:38;;;;;;;5.95;1.55;;;;;;;10.73;88.26;100718.16;5035151;27;96489;-31
2022/11/04 09:28:03;;;;;;;4.28;2.00;;;;;;;10.78;88.05;100722.31;5035390;27;96527;-31
2022/11/04 09:30:29;;;;;;;2.83;1.60;;;;;;;10.82;88.37;100720.25;5034366;27;99715;-31
2022/11/04 09:32:54;;;;;;;3.55;1.65;;;;;;;10.87;88.63;100728.09;5034313;28;99388;-32
2022/11/04 09:35:19;;;;;;;2.63;1.83;;;;;;;10.96;87.92;100724.78;5033279;28;96506;-31
2022/11/04 09:37:45;;;;;;;3.58;1.58;;;;;;;11.04;88.10;100722.47;5034891;27;96759;-31
2022/11/04 09:40:16;;;;;;;5.85;1.92;;;;;;;11.16;87.93;100723.50;5033067;28;98799;-31
2022/11/04 09:43:09;;;;;;;3.73;2.10;;;;;;;11.29;87.65;100727.13;5034492;28;97369;-31
2022/11/04 09:45:38;;;;;;;3.15;1.98;;;;;;;11.41;87.34;100739.00;5035060;28;96464;-31
2022/11/04 09:48:11;;;;;;;2.85;1.88;;;;;;;11.47;87.19;100753.03;5034726;27;96795;-32
2022/11/04 09:50:50;;;;;;;5.85;2.33;;;;;;;11.57;86.73;100749.69;5032872;28;100856;-31
2022/11/04 09:53:21;;;;;;;5.43;2.25;;;;;;;11.62;86.61;100751.09;5034561;27;97084;-31
2022/11/04 09:55:54;;;;;;;3.05;1.88;;;;;;;11.62;86.57;100755.66;5050316;27;96660;-32
2022/11/04 09:58:19;;;;;;;2.55;1.73;;;;;;;11.61;86.45;100762.09;5033115;28;96813;-31
2022/11/04 10:00:56;;;;;;;6.60;2.42;;;;;;;11.56;86.54;100765.09;5033814;27;97934;-32
2022/11/04 10:03:40;;;;;;;2.70;1.77;;;;;;;11.51;86.49;100774.50;5050090;27;99009;-32
2022/11/04 10:06:17;;;;;;;6.10;2.47;;;;;;;11.46;86.83;100780.22;5034453;28;96583;-32
2022/11/04 10:08:57;;;;;;;4.13;2.55;;;;;;;11.44;86.77;100766.78;5034675;27;96642;-32
2022/11/04 10:11:45;;;;;;;10.32;2.28;;;;;;;11.43;87.22;100780.44;5034068;28;99596;-33
2022/11/04 10:14:38;;;;;;;3.42;2.05;;;;;;;11.42;87.17;100782.28;5049190;27;101323;-31
2022/11/04 10:17:22;;;;;;;4.40;2.15;;;;;;;11.41;87.45;100791.38;5032156;28;96894;-33
2022/11/04 10:20:19;;;;;;;3.03;2.05;;;;;;;11.41;87.39;100793.22;5050314;27;96909;-31
2022/11/04 10:23:05;;;;;;;4.35;2.35;;;;;;;11.39;87.33;100798.78;5035227;28;99762;-32
2022/11/04 10:25:37;;;;;;;4.68;2.28;;;;;;;11.37;87.14;100808.84;5053014;27;101319;-31
2022/11/04 10:28:04;;;;;;;4.05;2.22;;;;;;;11.37;87.24;100800.72;5053124;27;96678;-32
2022/11/04 10:30:30;;;;;;;6.55;2.08;;;;;;;11.35;87.68;100805.38;5053200;27;96928;-32
2022/11/04 10:33:29;;;;;;;2.95;2.03;;;;;;;11.36;87.32;100817.06;5035790;28;101215;-31
2022/11/04 10:36:04;;;;;;;3.58;1.98;;;;;;;11.38;87.67;100818.72;5016326;27;97940;-31
2022/11/04 10:38:48;;;;;;;5.15;2.13;;;;;;;11.41;87.50;100831.19;5037353;28;96672;-33
2022/11/04 10:41:26;;;;;;;8.35;2.28;;;;;;;11.43;87.53;100827.41;5037552;27;96714;-31
2022/11/04 10:44:29;;;;;;;4.53;2.40;;;;;;;11.45;87.79;100830.91;5035632;28;103702;-31
2022/11/04 10:47:25;;;;;;;4.32;2.10;;;;;;;11.50;88.15;100835.16;4975390;28;97994;-33
2022/11/04 10:50:03;;;;;;;3.50;2.17;;;;;;;11.53;87.61;100838.53;5052980;27;96642;-32
2022/11/04 10:52:32;;;;;;;4.13;1.88;;;;;;;11.55;87.04;100830.31;5053016;27;96985;-32
2022/11/04 10:54:58;;;;;;;4.45;2.05;;;;;;;11.61;86.88;100836.19;5035208;28;100832;-31
2022/11/04 10:57:24;;;;;;;8.82;2.67;;;;;;;11.64;86.98;100841.41;5036748;27;98931;-32
2022/11/04 10:59:53;;;;;;;2.72;1.80;;;;;;;11.72;86.60;100840.03;5035490;28;96712;-32
2022/11/04 11:02:39;;;;;;;3.90;2.20;;;;;;;11.78;86.96;100840.50;5037302;27;96788;-32
2022/11/04 11:05:16;;;;;;;2.42;1.67;;;;;;;11.82;86.92;100843.88;5036874;28;97477;-31
2022/11/04 11:07:43;;;;;;;5.70;2.25;;;;;;;11.86;86.79;100848.13;5037169;28;97520;-31
2022/11/04 11:10:27;;;;;;;3.40;1.83;;;;;;;11.92;86.28;100842.34;5035527;28;96756;-31
2022/11/04 11:13:22;;;;;;;6.55;1.98;;;;;;;12.04;86.52;100852.34;5052836;27;96848;-31
2022/11/04 11:15:48;;;;;;;4.40;2.28;;;;;;;12.25;85.73;100847.31;5035216;27;98413;-32
2022/11/04 11:18:21;;;;;;;4.18;2.10;;;;;;;12.50;85.18;100853.75;5036073;27;97811;-33
2022/11/04 11:21:07;;;;;;;2.90;1.95;;;;;;;12.81;84.18;100852.47;5036364;28;96774;-32
2022/11/04 11:23:40;;;;;;;4.78;2.10;;;;;;;12.98;83.27;100853.97;5052485;27;96872;-33
2022/11/04 11:26:09;;;;;;;4.05;2.03;;;;;;;13.13;82.63;100852.91;5052006;27;101334;-31
2022/11/04 11:28:39;;;;;;;3.53;1.67;;;;;;;13.15;82.30;100856.34;5035072;28;101675;-31
2022/11/04 11:31:15;;;;;;;4.75;1.63;;;;;;;13.21;82.25;100867.78;5036703;27;96646;-30
2022/11/04 11:33:51;;;;;;;3.92;1.63;;;;;;;13.22;81.84;100869.50;5036046;27;96791;-33
2022/11/04 11:36:25;;;;;;;3.13;2.00;;;;;;;13.26;81.98;100890.09;5036461;27;98266;-32
2022/11/04 11:39:04;;;;;;;4.43;1.50;;;;;;;13.15;82.05;100882.69;5036644;27;99316;-31
2022/11/04 11:41:34;;;;;;;2.28;1.10;;;;;;;13.07;82.54;100895.97;5036567;28;96691;-31
2022/11/04 11:44:23;;;;;;;1.67;1.23;;;;;;;13.01;82.48;100902.69;5035099;28;96854;-31
2022/11/04 11:46:55;;;;;;;1.48;0.88;;;;;;;12.94;82.38;100904.09;5035968;27;97589;-32
2022/11/04 11:49:27;;;;;;;;;;;;;;;12.89;82.94;100906.28;5036551;28;99508;-31
2022/11/04 11:51:52;;;;;;;3.13;1.00;;;;;;;12.83;82.82;100912.19;5034823;28;96620;-31
2022/11/04 11:54:34;;;;;;;2.63;0.82;;;;;;;12.75;82.35;100904.53;5036340;27;97168;-30
2022/11/04 11:57:23;;;;;;;1.30;0.77;;;;;;;12.64;81.70;100907.16;5034331;27;101176;-31
2022/11/04 11:59:56;;;;;;;0.68;0.40;;;;;;;12.58;80.42;100919.28;5051560;27;100929;-32
2022/11/04 12:02:28;;;;;;;0.68;0.38;;;;;;;12.49;81.09;100917.22;5034719;28;96586;-32
2022/11/04 12:04:56;;;;;;;0.60;0.55;;;;;;;12.43;81.08;100918.50;5036441;27;96878;-33
2022/11/04 12:07:54;;;;;;;0.10;0.10;;;;;;;12.36;81.42;100913.59;5035820;28;97987;-32
2022/11/04 12:10:31;;;;;;;0.70;0.15;;;;;;;12.35;82.25;100920.00;5036373;28;97381;-31
2022/11/04 12:12:59;;;;;;;0.25;0.20;;;;;;;12.29;82.18;100921.28;5035538;27;96665;-31